Аэропорт: Ивано-Франковск. Ивано-Франковск

ICAO: UKLI

METAR:
Информация по данной станции не доступна
METAR:
2021-10-22 17:02:00
TAF UKLI 221702Z 2218/2303 VRB01MPS 9999 BKN030 TX09/2218Z TN05/2303Z